Weather at Guaicanamar Airport

Public forecast

Using degrees Celsius for public forecast. Weather courtesy of forecast.io.

Closest aviation weather report (METAR) to Guaicanamar Airport

Closest report is Ignacio Agramonte International Airport, 31.5 nm (58.4 km) N.

2024/04/22 04:50 (retrieved 1 hour ago)

MUCM 220450Z 04004KT 9000 FEW020 23/21 Q1016

Closest aviation forecast (TAF) to Guaicanamar Airport

Closest forecast is Ignacio Agramonte International Airport, 31.5 nm (58.4 km) N.

2024/04/22 06:20 (retrieved 0 seconds ago)

TAF MUCM 220500Z 2206/2306 VRB04KT 9000 FEW020 TEMPO 2220/2224 FEW018TCU BKN020